sensor_id;sensor_type;location;lat;lon;timestamp;P1;durP1;ratioP1;P2;durP2;ratioP2
42000;SDS011;27689;48.390;10.856;2023-04-24T00:01:21;2.88;;;1.95;;
42000;SDS011;27689;48.390;10.856;2023-04-24T00:04:26;4.30;;;2.60;;
42000;SDS011;27689;48.390;10.856;2023-04-24T00:07:13;3.40;;;2.40;;
42000;SDS011;27689;48.390;10.856;2023-04-24T00:10:13;2.83;;;2.63;;
42000;SDS011;27689;48.390;10.856;2023-04-24T00:13:04;2.47;;;2.28;;
42000;SDS011;27689;48.390;10.856;2023-04-24T00:16:09;2.75;;;2.03;;
42000;SDS011;27689;48.390;10.856;2023-04-24T00:19:01;2.60;;;2.13;;
42000;SDS011;27689;48.390;10.856;2023-04-24T00:21:53;2.35;;;2.15;;
42000;SDS011;27689;48.390;10.856;2023-04-24T00:24:43;2.08;;;1.88;;
42000;SDS011;27689;48.390;10.856;2023-04-24T00:27:30;2.40;;;2.20;;
42000;SDS011;27689;48.390;10.856;2023-04-24T00:30:23;2.45;;;2.13;;
42000;SDS011;27689;48.390;10.856;2023-04-24T00:33:11;3.78;;;2.17;;
42000;SDS011;27689;48.390;10.856;2023-04-24T00:35:58;5.68;;;2.00;;
42000;SDS011;27689;48.390;10.856;2023-04-24T00:38:45;1.98;;;1.88;;
42000;SDS011;27689;48.390;10.856;2023-04-24T00:41:38;2.63;;;1.77;;
42000;SDS011;27689;48.390;10.856;2023-04-24T00:44:40;3.20;;;2.03;;
42000;SDS011;27689;48.390;10.856;2023-04-24T00:47:40;1.85;;;1.75;;
42000;SDS011;27689;48.390;10.856;2023-04-24T00:50:32;1.83;;;1.73;;
42000;SDS011;27689;48.390;10.856;2023-04-24T00:53:18;2.33;;;1.80;;
42000;SDS011;27689;48.390;10.856;2023-04-24T00:56:03;2.53;;;1.92;;
42000;SDS011;27689;48.390;10.856;2023-04-24T00:58:53;1.92;;;1.70;;
42000;SDS011;27689;48.390;10.856;2023-04-24T01:01:43;3.10;;;1.95;;
42000;SDS011;27689;48.390;10.856;2023-04-24T01:04:33;1.83;;;1.65;;
42000;SDS011;27689;48.390;10.856;2023-04-24T01:07:19;2.65;;;2.08;;
42000;SDS011;27689;48.390;10.856;2023-04-24T01:10:31;2.28;;;2.08;;
42000;SDS011;27689;48.390;10.856;2023-04-24T01:13:32;3.28;;;1.73;;
42000;SDS011;27689;48.390;10.856;2023-04-24T01:16:22;2.22;;;1.98;;
42000;SDS011;27689;48.390;10.856;2023-04-24T01:19:19;2.15;;;2.05;;
42000;SDS011;27689;48.390;10.856;2023-04-24T01:22:20;2.13;;;1.92;;
42000;SDS011;27689;48.390;10.856;2023-04-24T01:25:18;3.75;;;1.75;;
42000;SDS011;27689;48.390;10.856;2023-04-24T01:28:08;2.00;;;1.67;;
42000;SDS011;27689;48.390;10.856;2023-04-24T01:31:00;1.70;;;1.60;;
42000;SDS011;27689;48.390;10.856;2023-04-24T01:33:55;1.80;;;1.63;;
42000;SDS011;27689;48.390;10.856;2023-04-24T01:36:50;2.30;;;1.70;;
42000;SDS011;27689;48.390;10.856;2023-04-24T01:39:44;1.63;;;1.52;;
42000;SDS011;27689;48.390;10.856;2023-04-24T01:42:34;1.58;;;1.48;;
42000;SDS011;27689;48.390;10.856;2023-04-24T01:45:27;2.38;;;2.00;;
42000;SDS011;27689;48.390;10.856;2023-04-24T01:48:12;3.75;;;1.60;;
42000;SDS011;27689;48.390;10.856;2023-04-24T01:51:02;2.60;;;1.77;;
42000;SDS011;27689;48.390;10.856;2023-04-24T01:53:54;3.58;;;1.75;;
42000;SDS011;27689;48.390;10.856;2023-04-24T01:56:41;1.60;;;1.50;;
42000;SDS011;27689;48.390;10.856;2023-04-24T01:59:37;3.45;;;1.65;;
42000;SDS011;27689;48.390;10.856;2023-04-24T02:02:24;2.07;;;1.97;;
42000;SDS011;27689;48.390;10.856;2023-04-24T02:05:22;2.40;;;1.55;;
42000;SDS011;27689;48.390;10.856;2023-04-24T02:08:17;2.13;;;1.85;;
42000;SDS011;27689;48.390;10.856;2023-04-24T02:11:11;2.38;;;1.63;;
42000;SDS011;27689;48.390;10.856;2023-04-24T02:14:22;2.40;;;1.80;;
42000;SDS011;27689;48.390;10.856;2023-04-24T02:17:16;2.13;;;1.63;;
42000;SDS011;27689;48.390;10.856;2023-04-24T02:20:26;2.35;;;1.63;;
42000;SDS011;27689;48.390;10.856;2023-04-24T02:23:19;4.90;;;1.70;;
42000;SDS011;27689;48.390;10.856;2023-04-24T02:26:06;2.17;;;1.98;;
42000;SDS011;27689;48.390;10.856;2023-04-24T02:29:09;4.55;;;1.63;;
42000;SDS011;27689;48.390;10.856;2023-04-24T02:32:01;1.55;;;1.35;;
42000;SDS011;27689;48.390;10.856;2023-04-24T02:34:55;3.25;;;1.25;;
42000;SDS011;27689;48.390;10.856;2023-04-24T02:37:45;2.38;;;1.48;;
42000;SDS011;27689;48.390;10.856;2023-04-24T02:40:32;2.58;;;2.08;;
42000;SDS011;27689;48.390;10.856;2023-04-24T02:43:16;3.20;;;1.73;;
42000;SDS011;27689;48.390;10.856;2023-04-24T02:46:13;1.50;;;1.30;;
42000;SDS011;27689;48.390;10.856;2023-04-24T02:49:03;2.10;;;1.48;;
42000;SDS011;27689;48.390;10.856;2023-04-24T02:51:47;2.40;;;1.27;;
42000;SDS011;27689;48.390;10.856;2023-04-24T02:54:37;2.45;;;1.40;;
42000;SDS011;27689;48.390;10.856;2023-04-24T02:57:26;1.80;;;1.63;;
42000;SDS011;27689;48.390;10.856;2023-04-24T03:00:16;1.92;;;1.50;;
42000;SDS011;27689;48.390;10.856;2023-04-24T03:03:26;2.65;;;1.85;;
42000;SDS011;27689;48.390;10.856;2023-04-24T03:06:34;2.22;;;1.70;;
42000;SDS011;27689;48.390;10.856;2023-04-24T03:09:41;1.60;;;1.42;;
42000;SDS011;27689;48.390;10.856;2023-04-24T03:12:30;2.58;;;1.90;;
42000;SDS011;27689;48.390;10.856;2023-04-24T03:15:22;2.33;;;2.13;;
42000;SDS011;27689;48.390;10.856;2023-04-24T03:18:09;2.53;;;1.95;;
42000;SDS011;27689;48.390;10.856;2023-04-24T03:21:01;4.05;;;1.88;;
42000;SDS011;27689;48.390;10.856;2023-04-24T03:23:56;2.90;;;1.60;;
42000;SDS011;27689;48.390;10.856;2023-04-24T03:26:46;3.35;;;1.40;;
42000;SDS011;27689;48.390;10.856;2023-04-24T03:29:40;2.92;;;1.75;;
42000;SDS011;27689;48.390;10.856;2023-04-24T03:32:35;1.80;;;1.70;;
42000;SDS011;27689;48.390;10.856;2023-04-24T03:35:23;3.58;;;1.90;;
42000;SDS011;27689;48.390;10.856;2023-04-24T03:38:16;3.47;;;1.65;;
42000;SDS011;27689;48.390;10.856;2023-04-24T03:41:20;3.50;;;2.08;;
42000;SDS011;27689;48.390;10.856;2023-04-24T03:44:16;3.70;;;2.03;;
42000;SDS011;27689;48.390;10.856;2023-04-24T03:47:04;4.50;;;2.05;;
42000;SDS011;27689;48.390;10.856;2023-04-24T03:49:49;4.50;;;2.45;;
42000;SDS011;27689;48.390;10.856;2023-04-24T03:52:36;2.67;;;2.05;;
42000;SDS011;27689;48.390;10.856;2023-04-24T03:55:22;2.03;;;1.85;;
42000;SDS011;27689;48.390;10.856;2023-04-24T04:04:15;2.08;;;1.60;;
42000;SDS011;27689;48.390;10.856;2023-04-24T04:07:10;1.60;;;1.48;;
42000;SDS011;27689;48.390;10.856;2023-04-24T04:10:05;1.80;;;1.70;;
42000;SDS011;27689;48.390;10.856;2023-04-24T04:12:54;4.70;;;1.88;;
42000;SDS011;27689;48.390;10.856;2023-04-24T04:15:45;1.63;;;1.50;;
42000;SDS011;27689;48.390;10.856;2023-04-24T04:18:32;1.70;;;1.60;;
42000;SDS011;27689;48.390;10.856;2023-04-24T04:24:24;1.77;;;1.30;;
42000;SDS011;27689;48.390;10.856;2023-04-24T04:27:17;2.15;;;1.48;;
42000;SDS011;27689;48.390;10.856;2023-04-24T04:30:15;2.08;;;1.63;;
42000;SDS011;27689;48.390;10.856;2023-04-24T04:33:09;1.55;;;1.45;;
42000;SDS011;27689;48.390;10.856;2023-04-24T04:35:53;2.47;;;1.53;;
42000;SDS011;27689;48.390;10.856;2023-04-24T04:38:40;1.58;;;1.48;;
42000;SDS011;27689;48.390;10.856;2023-04-24T04:41:24;1.80;;;1.37;;
42000;SDS011;27689;48.390;10.856;2023-04-24T04:44:08;2.55;;;1.60;;
42000;SDS011;27689;48.390;10.856;2023-04-24T04:46:53;2.40;;;2.08;;
42000;SDS011;27689;48.390;10.856;2023-04-24T04:49:39;1.63;;;1.45;;
42000;SDS011;27689;48.390;10.856;2023-04-24T04:52:24;5.03;;;1.80;;
42000;SDS011;27689;48.390;10.856;2023-04-24T04:55:10;1.55;;;1.45;;
42000;SDS011;27689;48.390;10.856;2023-04-24T04:57:54;2.25;;;1.80;;
42000;SDS011;27689;48.390;10.856;2023-04-24T05:00:39;2.00;;;1.70;;
42000;SDS011;27689;48.390;10.856;2023-04-24T05:03:23;4.43;;;1.83;;
42000;SDS011;27689;48.390;10.856;2023-04-24T05:06:07;1.80;;;1.30;;
42000;SDS011;27689;48.390;10.856;2023-04-24T05:08:51;3.20;;;1.60;;
42000;SDS011;27689;48.390;10.856;2023-04-24T05:11:39;2.00;;;1.48;;
42000;SDS011;27689;48.390;10.856;2023-04-24T05:14:23;1.87;;;1.77;;
42000;SDS011;27689;48.390;10.856;2023-04-24T05:17:07;2.20;;;1.45;;
42000;SDS011;27689;48.390;10.856;2023-04-24T05:19:51;1.98;;;1.73;;
42000;SDS011;27689;48.390;10.856;2023-04-24T05:22:35;4.50;;;1.80;;
42000;SDS011;27689;48.390;10.856;2023-04-24T05:25:19;1.57;;;1.47;;
42000;SDS011;27689;48.390;10.856;2023-04-24T05:28:03;2.95;;;1.65;;
42000;SDS011;27689;48.390;10.856;2023-04-24T05:30:47;2.20;;;1.30;;
42000;SDS011;27689;48.390;10.856;2023-04-24T05:33:31;3.10;;;1.45;;
42000;SDS011;27689;48.390;10.856;2023-04-24T05:36:15;1.70;;;1.35;;
42000;SDS011;27689;48.390;10.856;2023-04-24T05:38:59;3.33;;;1.67;;
42000;SDS011;27689;48.390;10.856;2023-04-24T05:41:43;1.63;;;1.23;;
42000;SDS011;27689;48.390;10.856;2023-04-24T05:44:34;1.77;;;1.40;;
42000;SDS011;27689;48.390;10.856;2023-04-24T05:47:18;2.60;;;1.43;;
42000;SDS011;27689;48.390;10.856;2023-04-24T05:50:01;1.67;;;1.25;;
42000;SDS011;27689;48.390;10.856;2023-04-24T05:52:46;1.38;;;1.27;;
42000;SDS011;27689;48.390;10.856;2023-04-24T05:55:30;1.60;;;1.27;;
42000;SDS011;27689;48.390;10.856;2023-04-24T05:58:14;3.75;;;1.20;;
42000;SDS011;27689;48.390;10.856;2023-04-24T06:00:58;2.22;;;1.42;;
42000;SDS011;27689;48.390;10.856;2023-04-24T06:03:44;3.72;;;1.40;;
42000;SDS011;27689;48.390;10.856;2023-04-24T06:06:28;1.57;;;1.30;;
42000;SDS011;27689;48.390;10.856;2023-04-24T06:09:12;2.08;;;1.40;;
42000;SDS011;27689;48.390;10.856;2023-04-24T06:11:56;1.40;;;1.27;;
42000;SDS011;27689;48.390;10.856;2023-04-24T06:14:41;4.35;;;1.40;;
42000;SDS011;27689;48.390;10.856;2023-04-24T06:17:24;1.52;;;1.40;;
42000;SDS011;27689;48.390;10.856;2023-04-24T06:20:08;1.83;;;1.23;;
42000;SDS011;27689;48.390;10.856;2023-04-24T06:22:54;2.78;;;1.30;;
42000;SDS011;27689;48.390;10.856;2023-04-24T06:25:38;2.70;;;1.27;;
42000;SDS011;27689;48.390;10.856;2023-04-24T06:28:22;3.33;;;1.80;;
42000;SDS011;27689;48.390;10.856;2023-04-24T06:31:06;4.10;;;1.20;;
42000;SDS011;27689;48.390;10.856;2023-04-24T06:33:50;3.72;;;1.30;;
42000;SDS011;27689;48.390;10.856;2023-04-24T06:36:34;2.00;;;1.55;;
42000;SDS011;27689;48.390;10.856;2023-04-24T06:39:19;2.53;;;1.55;;
42000;SDS011;27689;48.390;10.856;2023-04-24T06:42:03;1.52;;;1.40;;
42000;SDS011;27689;48.390;10.856;2023-04-24T06:44:47;2.70;;;1.70;;
42000;SDS011;27689;48.390;10.856;2023-04-24T06:47:31;2.35;;;1.40;;
42000;SDS011;27689;48.390;10.856;2023-04-24T06:50:15;1.75;;;1.65;;
42000;SDS011;27689;48.390;10.856;2023-04-24T06:52:59;1.53;;;1.43;;
42000;SDS011;27689;48.390;10.856;2023-04-24T06:55:43;1.55;;;1.45;;
42000;SDS011;27689;48.390;10.856;2023-04-24T06:58:30;1.60;;;1.50;;
42000;SDS011;27689;48.390;10.856;2023-04-24T07:01:14;3.15;;;1.90;;
42000;SDS011;27689;48.390;10.856;2023-04-24T07:03:58;1.60;;;1.50;;
42000;SDS011;27689;48.390;10.856;2023-04-24T07:06:43;3.00;;;1.67;;
42000;SDS011;27689;48.390;10.856;2023-04-24T07:09:29;1.58;;;1.20;;
42000;SDS011;27689;48.390;10.856;2023-04-24T07:12:13;1.98;;;1.40;;
42000;SDS011;27689;48.390;10.856;2023-04-24T07:14:57;1.20;;;1.10;;
42000;SDS011;27689;48.390;10.856;2023-04-24T07:17:41;1.98;;;1.35;;
42000;SDS011;27689;48.390;10.856;2023-04-24T07:20:28;2.05;;;1.33;;
42000;SDS011;27689;48.390;10.856;2023-04-24T07:23:12;1.63;;;1.13;;
42000;SDS011;27689;48.390;10.856;2023-04-24T07:25:55;1.43;;;1.20;;
42000;SDS011;27689;48.390;10.856;2023-04-24T07:28:40;1.43;;;1.33;;
42000;SDS011;27689;48.390;10.856;2023-04-24T07:31:24;1.50;;;1.40;;
42000;SDS011;27689;48.390;10.856;2023-04-24T07:34:08;1.30;;;1.20;;
42000;SDS011;27689;48.390;10.856;2023-04-24T07:36:52;1.50;;;1.40;;
42000;SDS011;27689;48.390;10.856;2023-04-24T07:39:36;1.40;;;1.30;;
42000;SDS011;27689;48.390;10.856;2023-04-24T07:42:20;1.50;;;1.17;;
42000;SDS011;27689;48.390;10.856;2023-04-24T07:45:04;2.47;;;1.10;;
42000;SDS011;27689;48.390;10.856;2023-04-24T07:47:49;1.10;;;1.10;;
42000;SDS011;27689;48.390;10.856;2023-04-24T07:50:34;1.08;;;1.08;;
42000;SDS011;27689;48.390;10.856;2023-04-24T07:53:20;2.20;;;1.48;;
42000;SDS011;27689;48.390;10.856;2023-04-24T07:56:05;2.35;;;1.13;;
42000;SDS011;27689;48.390;10.856;2023-04-24T07:58:49;1.90;;;1.30;;
42000;SDS011;27689;48.390;10.856;2023-04-24T08:01:33;1.30;;;1.20;;
42000;SDS011;27689;48.390;10.856;2023-04-24T08:04:18;1.60;;;1.50;;
42000;SDS011;27689;48.390;10.856;2023-04-24T08:07:01;1.50;;;1.40;;
42000;SDS011;27689;48.390;10.856;2023-04-24T08:09:45;2.20;;;1.97;;
42000;SDS011;27689;48.390;10.856;2023-04-24T08:12:29;1.70;;;1.60;;
42000;SDS011;27689;48.390;10.856;2023-04-24T08:15:13;1.92;;;1.83;;
42000;SDS011;27689;48.390;10.856;2023-04-24T08:17:58;3.78;;;1.75;;
42000;SDS011;27689;48.390;10.856;2023-04-24T08:20:42;1.60;;;1.50;;
42000;SDS011;27689;48.390;10.856;2023-04-24T08:23:25;1.67;;;1.30;;
42000;SDS011;27689;48.390;10.856;2023-04-24T08:26:09;2.33;;;1.57;;
42000;SDS011;27689;48.390;10.856;2023-04-24T08:31:38;1.75;;;1.55;;
42000;SDS011;27689;48.390;10.856;2023-04-24T08:34:22;1.55;;;1.42;;
42000;SDS011;27689;48.390;10.856;2023-04-24T08:37:06;3.00;;;1.80;;
42000;SDS011;27689;48.390;10.856;2023-04-24T08:39:50;1.90;;;1.57;;
42000;SDS011;27689;48.390;10.856;2023-04-24T08:42:34;2.70;;;1.73;;
42000;SDS011;27689;48.390;10.856;2023-04-24T08:45:20;1.73;;;1.25;;
42000;SDS011;27689;48.390;10.856;2023-04-24T08:48:04;2.72;;;1.42;;
42000;SDS011;27689;48.390;10.856;2023-04-24T08:50:50;1.73;;;1.40;;
42000;SDS011;27689;48.390;10.856;2023-04-24T08:53:34;2.25;;;1.60;;
42000;SDS011;27689;48.390;10.856;2023-04-24T08:56:18;3.47;;;1.50;;
42000;SDS011;27689;48.390;10.856;2023-04-24T09:01:48;3.28;;;1.63;;
42000;SDS011;27689;48.390;10.856;2023-04-24T09:04:35;3.38;;;1.52;;
42000;SDS011;27689;48.390;10.856;2023-04-24T09:07:20;2.53;;;1.52;;
42000;SDS011;27689;48.390;10.856;2023-04-24T09:10:08;2.08;;;1.80;;
42000;SDS011;27689;48.390;10.856;2023-04-24T09:12:52;2.22;;;1.60;;
42000;SDS011;27689;48.390;10.856;2023-04-24T09:15:38;2.22;;;1.70;;
42000;SDS011;27689;48.390;10.856;2023-04-24T09:18:26;2.05;;;1.67;;
42000;SDS011;27689;48.390;10.856;2023-04-24T09:21:11;2.67;;;1.77;;
42000;SDS011;27689;48.390;10.856;2023-04-24T09:24:07;5.70;;;1.90;;
42000;SDS011;27689;48.390;10.856;2023-04-24T09:26:58;2.38;;;1.90;;
42000;SDS011;27689;48.390;10.856;2023-04-24T09:29:53;2.15;;;1.95;;
42000;SDS011;27689;48.390;10.856;2023-04-24T09:32:40;2.25;;;2.05;;
42000;SDS011;27689;48.390;10.856;2023-04-24T09:35:25;2.33;;;1.90;;
42000;SDS011;27689;48.390;10.856;2023-04-24T09:38:09;4.72;;;2.38;;
42000;SDS011;27689;48.390;10.856;2023-04-24T09:40:54;3.22;;;1.90;;
42000;SDS011;27689;48.390;10.856;2023-04-24T09:43:38;3.88;;;2.00;;
42000;SDS011;27689;48.390;10.856;2023-04-24T09:46:29;2.45;;;2.03;;
42000;SDS011;27689;48.390;10.856;2023-04-24T09:49:16;4.32;;;2.17;;
42000;SDS011;27689;48.390;10.856;2023-04-24T09:52:04;2.72;;;1.88;;
42000;SDS011;27689;48.390;10.856;2023-04-24T09:54:52;2.03;;;1.80;;
42000;SDS011;27689;48.390;10.856;2023-04-24T09:57:46;2.58;;;2.00;;
42000;SDS011;27689;48.390;10.856;2023-04-24T10:00:49;3.65;;;1.70;;
42000;SDS011;27689;48.390;10.856;2023-04-24T10:03:39;2.42;;;1.85;;
42000;SDS011;27689;48.390;10.856;2023-04-24T10:06:36;1.70;;;1.60;;
42000;SDS011;27689;48.390;10.856;2023-04-24T10:09:24;1.73;;;1.17;;
42000;SDS011;27689;48.390;10.856;2023-04-24T10:12:18;1.23;;;1.13;;
42000;SDS011;27689;48.390;10.856;2023-04-24T10:18:00;1.80;;;1.05;;
42000;SDS011;27689;48.390;10.856;2023-04-24T10:20:52;1.90;;;1.27;;
42000;SDS011;27689;48.390;10.856;2023-04-24T10:23:43;1.45;;;1.35;;
42000;SDS011;27689;48.390;10.856;2023-04-24T10:26:38;1.75;;;1.25;;
42000;SDS011;27689;48.390;10.856;2023-04-24T10:29:33;1.60;;;1.40;;
42000;SDS011;27689;48.390;10.856;2023-04-24T10:32:24;3.08;;;1.77;;
42000;SDS011;27689;48.390;10.856;2023-04-24T10:35:17;4.43;;;1.98;;
42000;SDS011;27689;48.390;10.856;2023-04-24T10:38:12;1.90;;;1.70;;
42000;SDS011;27689;48.390;10.856;2023-04-24T10:41:12;2.13;;;1.50;;
42000;SDS011;27689;48.390;10.856;2023-04-24T10:44:14;3.85;;;1.67;;
42000;SDS011;27689;48.390;10.856;2023-04-24T10:47:01;1.50;;;1.20;;
42000;SDS011;27689;48.390;10.856;2023-04-24T10:49:50;2.58;;;1.30;;
42000;SDS011;27689;48.390;10.856;2023-04-24T10:52:45;2.95;;;1.30;;
42000;SDS011;27689;48.390;10.856;2023-04-24T10:55:45;4.28;;;1.55;;
42000;SDS011;27689;48.390;10.856;2023-04-24T11:01:37;2.63;;;1.40;;
42000;SDS011;27689;48.390;10.856;2023-04-24T11:04:36;1.75;;;1.48;;
42000;SDS011;27689;48.390;10.856;2023-04-24T11:07:29;1.70;;;1.27;;
42000;SDS011;27689;48.390;10.856;2023-04-24T11:10:25;1.92;;;1.30;;
42000;SDS011;27689;48.390;10.856;2023-04-24T11:13:24;1.77;;;1.20;;
42000;SDS011;27689;48.390;10.856;2023-04-24T11:16:27;4.18;;;1.50;;
42000;SDS011;27689;48.390;10.856;2023-04-24T11:19:23;2.28;;;1.63;;
42000;SDS011;27689;48.390;10.856;2023-04-24T11:22:17;2.40;;;1.52;;
42000;SDS011;27689;48.390;10.856;2023-04-24T11:25:12;2.58;;;1.08;;
42000;SDS011;27689;48.390;10.856;2023-04-24T11:28:08;1.95;;;1.20;;
42000;SDS011;27689;48.390;10.856;2023-04-24T11:34:40;1.65;;;1.20;;
42000;SDS011;27689;48.390;10.856;2023-04-24T11:37:26;1.52;;;1.10;;
42000;SDS011;27689;48.390;10.856;2023-04-24T11:40:15;2.03;;;1.35;;
42000;SDS011;27689;48.390;10.856;2023-04-24T11:43:11;1.52;;;1.40;;
42000;SDS011;27689;48.390;10.856;2023-04-24T11:46:04;2.35;;;1.30;;
42000;SDS011;27689;48.390;10.856;2023-04-24T11:48:49;3.42;;;1.42;;
42000;SDS011;27689;48.390;10.856;2023-04-24T11:51:35;1.73;;;1.25;;
42000;SDS011;27689;48.390;10.856;2023-04-24T11:54:19;1.95;;;1.33;;
42000;SDS011;27689;48.390;10.856;2023-04-24T11:57:17;3.47;;;1.45;;
42000;SDS011;27689;48.390;10.856;2023-04-24T12:00:26;2.60;;;1.50;;
42000;SDS011;27689;48.390;10.856;2023-04-24T12:03:13;2.55;;;1.20;;
42000;SDS011;27689;48.390;10.856;2023-04-24T12:06:12;3.10;;;1.27;;
42000;SDS011;27689;48.390;10.856;2023-04-24T12:08:59;1.70;;;1.23;;
42000;SDS011;27689;48.390;10.856;2023-04-24T12:11:54;1.77;;;1.35;;
42000;SDS011;27689;48.390;10.856;2023-04-24T12:14:49;1.63;;;1.20;;
42000;SDS011;27689;48.390;10.856;2023-04-24T12:17:36;1.73;;;1.23;;
42000;SDS011;27689;48.390;10.856;2023-04-24T12:20:33;2.85;;;1.60;;
42000;SDS011;27689;48.390;10.856;2023-04-24T12:23:37;2.90;;;1.80;;
42000;SDS011;27689;48.390;10.856;2023-04-24T12:26:26;2.08;;;1.30;;
42000;SDS011;27689;48.390;10.856;2023-04-24T12:29:23;2.33;;;1.40;;
42000;SDS011;27689;48.390;10.856;2023-04-24T12:32:16;2.00;;;1.45;;
42000;SDS011;27689;48.390;10.856;2023-04-24T12:35:06;2.00;;;1.55;;
42000;SDS011;27689;48.390;10.856;2023-04-24T12:37:59;2.17;;;1.48;;
42000;SDS011;27689;48.390;10.856;2023-04-24T12:41:13;1.80;;;1.30;;
42000;SDS011;27689;48.390;10.856;2023-04-24T12:44:09;2.83;;;1.40;;
42000;SDS011;27689;48.390;10.856;2023-04-24T12:46:59;2.58;;;1.42;;
42000;SDS011;27689;48.390;10.856;2023-04-24T12:49:51;1.42;;;1.27;;
42000;SDS011;27689;48.390;10.856;2023-04-24T12:52:49;3.33;;;1.60;;
42000;SDS011;27689;48.390;10.856;2023-04-24T12:55:45;1.90;;;1.50;;
42000;SDS011;27689;48.390;10.856;2023-04-24T12:58:40;2.05;;;1.55;;
42000;SDS011;27689;48.390;10.856;2023-04-24T13:01:24;2.45;;;1.42;;
42000;SDS011;27689;48.390;10.856;2023-04-24T13:04:11;1.50;;;1.40;;
42000;SDS011;27689;48.390;10.856;2023-04-24T13:07:00;1.63;;;1.23;;
42000;SDS011;27689;48.390;10.856;2023-04-24T13:09:44;3.20;;;1.33;;
42000;SDS011;27689;48.390;10.856;2023-04-24T13:12:30;1.75;;;1.33;;
42000;SDS011;27689;48.390;10.856;2023-04-24T13:15:29;1.60;;;1.50;;
42000;SDS011;27689;48.390;10.856;2023-04-24T13:18:15;2.05;;;1.38;;
42000;SDS011;27689;48.390;10.856;2023-04-24T13:21:03;1.65;;;1.55;;
42000;SDS011;27689;48.390;10.856;2023-04-24T13:23:48;2.03;;;1.40;;
42000;SDS011;27689;48.390;10.856;2023-04-24T13:26:50;1.77;;;1.40;;
42000;SDS011;27689;48.390;10.856;2023-04-24T13:29:35;2.15;;;1.40;;
42000;SDS011;27689;48.390;10.856;2023-04-24T13:32:31;2.40;;;1.33;;
42000;SDS011;27689;48.390;10.856;2023-04-24T13:35:21;2.28;;;1.38;;
42000;SDS011;27689;48.390;10.856;2023-04-24T13:38:17;3.35;;;1.60;;
42000;SDS011;27689;48.390;10.856;2023-04-24T13:41:09;1.20;;;1.10;;
42000;SDS011;27689;48.390;10.856;2023-04-24T13:43:58;1.42;;;1.20;;
42000;SDS011;27689;48.390;10.856;2023-04-24T13:46:48;2.38;;;1.48;;
42000;SDS011;27689;48.390;10.856;2023-04-24T13:49:43;2.40;;;1.20;;
42000;SDS011;27689;48.390;10.856;2023-04-24T13:52:30;3.13;;;1.60;;
42000;SDS011;27689;48.390;10.856;2023-04-24T13:55:17;3.10;;;1.65;;
42000;SDS011;27689;48.390;10.856;2023-04-24T13:58:07;2.78;;;1.83;;
42000;SDS011;27689;48.390;10.856;2023-04-24T14:00:55;3.22;;;1.30;;
42000;SDS011;27689;48.390;10.856;2023-04-24T14:03:52;2.60;;;1.20;;
42000;SDS011;27689;48.390;10.856;2023-04-24T14:06:42;1.33;;;1.20;;
42000;SDS011;27689;48.390;10.856;2023-04-24T14:09:27;2.88;;;1.10;;
42000;SDS011;27689;48.390;10.856;2023-04-24T14:12:17;2.00;;;1.10;;
42000;SDS011;27689;48.390;10.856;2023-04-24T14:15:09;2.75;;;1.00;;
42000;SDS011;27689;48.390;10.856;2023-04-24T14:18:06;1.98;;;1.30;;
42000;SDS011;27689;48.390;10.856;2023-04-24T14:20:59;1.17;;;1.08;;
42000;SDS011;27689;48.390;10.856;2023-04-24T14:23:48;1.55;;;1.08;;
42000;SDS011;27689;48.390;10.856;2023-04-24T14:26:47;1.65;;;1.10;;
42000;SDS011;27689;48.390;10.856;2023-04-24T14:29:43;2.05;;;1.10;;
42000;SDS011;27689;48.390;10.856;2023-04-24T14:32:32;1.77;;;1.23;;
42000;SDS011;27689;48.390;10.856;2023-04-24T14:35:25;1.58;;;1.00;;
42000;SDS011;27689;48.390;10.856;2023-04-24T14:38:12;1.95;;;1.05;;
42000;SDS011;27689;48.390;10.856;2023-04-24T14:41:14;2.10;;;1.40;;
42000;SDS011;27689;48.390;10.856;2023-04-24T14:44:33;1.10;;;1.00;;
42000;SDS011;27689;48.390;10.856;2023-04-24T14:47:25;1.88;;;1.00;;
42000;SDS011;27689;48.390;10.856;2023-04-24T14:50:20;1.15;;;1.05;;
42000;SDS011;27689;48.390;10.856;2023-04-24T14:53:05;1.05;;;0.90;;
42000;SDS011;27689;48.390;10.856;2023-04-24T14:55:54;0.85;;;0.85;;
42000;SDS011;27689;48.390;10.856;2023-04-24T14:58:45;2.85;;;1.20;;
42000;SDS011;27689;48.390;10.856;2023-04-24T15:01:35;1.38;;;1.00;;
42000;SDS011;27689;48.390;10.856;2023-04-24T15:04:24;3.58;;;1.10;;
42000;SDS011;27689;48.390;10.856;2023-04-24T15:07:14;1.02;;;0.93;;
42000;SDS011;27689;48.390;10.856;2023-04-24T15:10:01;2.47;;;1.35;;
42000;SDS011;27689;48.390;10.856;2023-04-24T15:12:53;0.80;;;0.80;;
42000;SDS011;27689;48.390;10.856;2023-04-24T15:15:53;1.60;;;1.10;;
42000;SDS011;27689;48.390;10.856;2023-04-24T15:18:48;3.00;;;1.10;;
42000;SDS011;27689;48.390;10.856;2023-04-24T15:21:37;1.20;;;0.90;;
42000;SDS011;27689;48.390;10.856;2023-04-24T15:24:34;1.88;;;0.95;;
42000;SDS011;27689;48.390;10.856;2023-04-24T15:27:29;1.13;;;0.80;;
42000;SDS011;27689;48.390;10.856;2023-04-24T15:30:26;0.80;;;0.70;;
42000;SDS011;27689;48.390;10.856;2023-04-24T15:33:10;1.38;;;1.00;;
42000;SDS011;27689;48.390;10.856;2023-04-24T15:36:03;1.20;;;0.98;;
42000;SDS011;27689;48.390;10.856;2023-04-24T15:38:52;1.48;;;1.10;;
42000;SDS011;27689;48.390;10.856;2023-04-24T15:41:39;3.25;;;1.05;;
42000;SDS011;27689;48.390;10.856;2023-04-24T15:44:34;2.08;;;1.13;;
42000;SDS011;27689;48.390;10.856;2023-04-24T15:47:41;1.10;;;1.00;;
42000;SDS011;27689;48.390;10.856;2023-04-24T15:50:34;2.45;;;0.90;;
42000;SDS011;27689;48.390;10.856;2023-04-24T15:53:26;2.15;;;1.00;;
42000;SDS011;27689;48.390;10.856;2023-04-24T15:56:17;2.10;;;1.15;;
42000;SDS011;27689;48.390;10.856;2023-04-24T15:59:04;1.45;;;1.15;;
42000;SDS011;27689;48.390;10.856;2023-04-24T16:01:53;2.33;;;1.00;;
42000;SDS011;27689;48.390;10.856;2023-04-24T16:04:38;1.35;;;0.93;;
42000;SDS011;27689;48.390;10.856;2023-04-24T16:07:23;1.17;;;0.88;;
42000;SDS011;27689;48.390;10.856;2023-04-24T16:10:15;3.25;;;1.13;;
42000;SDS011;27689;48.390;10.856;2023-04-24T16:12:59;2.10;;;0.98;;
42000;SDS011;27689;48.390;10.856;2023-04-24T16:15:52;1.70;;;1.02;;
42000;SDS011;27689;48.390;10.856;2023-04-24T16:18:41;3.58;;;1.30;;
42000;SDS011;27689;48.390;10.856;2023-04-24T16:21:28;1.42;;;1.02;;
42000;SDS011;27689;48.390;10.856;2023-04-24T16:24:12;1.40;;;1.02;;
42000;SDS011;27689;48.390;10.856;2023-04-24T16:26:59;2.08;;;1.20;;
42000;SDS011;27689;48.390;10.856;2023-04-24T16:29:52;2.15;;;1.25;;
42000;SDS011;27689;48.390;10.856;2023-04-24T16:32:43;3.17;;;1.13;;
42000;SDS011;27689;48.390;10.856;2023-04-24T16:35:30;2.72;;;1.13;;
42000;SDS011;27689;48.390;10.856;2023-04-24T16:38:13;1.08;;;0.98;;
42000;SDS011;27689;48.390;10.856;2023-04-24T16:41:03;5.90;;;1.40;;
42000;SDS011;27689;48.390;10.856;2023-04-24T16:44:00;2.60;;;0.90;;
42000;SDS011;27689;48.390;10.856;2023-04-24T16:47:08;1.95;;;1.17;;
42000;SDS011;27689;48.390;10.856;2023-04-24T16:50:12;1.35;;;1.20;;
42000;SDS011;27689;48.390;10.856;2023-04-24T16:52:56;2.10;;;1.13;;
42000;SDS011;27689;48.390;10.856;2023-04-24T16:55:45;1.08;;;0.98;;
42000;SDS011;27689;48.390;10.856;2023-04-24T16:58:35;5.47;;;1.30;;
42000;SDS011;27689;48.390;10.856;2023-04-24T17:01:20;1.67;;;1.30;;
42000;SDS011;27689;48.390;10.856;2023-04-24T17:04:07;1.55;;;1.30;;
42000;SDS011;27689;48.390;10.856;2023-04-24T17:06:54;2.10;;;1.42;;
42000;SDS011;27689;48.390;10.856;2023-04-24T17:09:40;3.00;;;1.50;;
42000;SDS011;27689;48.390;10.856;2023-04-24T17:12:30;1.55;;;1.40;;